createdAt,value
2022-10-06T00:00:00.927Z,99.90
2022-10-06T00:02:28.220Z,99.90
2022-10-06T00:04:55.057Z,99.90
2022-10-06T00:07:21.729Z,99.90
2022-10-06T00:09:48.441Z,99.90
2022-10-06T00:12:15.122Z,99.90
2022-10-06T00:14:41.775Z,99.90
2022-10-06T00:17:08.446Z,99.90
2022-10-06T00:19:35.093Z,99.90
2022-10-06T00:22:01.785Z,99.90
2022-10-06T00:24:28.532Z,99.90
2022-10-06T00:26:55.186Z,99.90
2022-10-06T00:29:21.970Z,99.90
2022-10-06T00:31:48.723Z,99.90
2022-10-06T00:34:15.371Z,99.90
2022-10-06T00:36:42.092Z,99.90
2022-10-06T00:39:08.761Z,99.90
2022-10-06T00:41:35.590Z,99.90
2022-10-06T00:44:02.290Z,99.90
2022-10-06T00:46:40.371Z,99.90
2022-10-06T00:49:19.371Z,99.90
2022-10-06T00:51:59.572Z,99.90
2022-10-06T00:54:27.454Z,99.90
2022-10-06T00:56:54.237Z,99.90
2022-10-06T00:59:21.048Z,99.90
2022-10-06T01:02:21.850Z,99.90
2022-10-06T01:04:52.332Z,99.90
2022-10-06T01:07:21.695Z,99.90
2022-10-06T01:09:49.046Z,99.90
2022-10-06T01:12:16.490Z,99.90
2022-10-06T01:14:43.370Z,99.90
2022-10-06T01:17:21.254Z,99.90
2022-10-06T01:19:47.886Z,99.90
2022-10-06T01:22:17.154Z,99.90
2022-10-06T01:24:46.814Z,99.90
2022-10-06T01:27:15.289Z,99.90
2022-10-06T01:29:42.051Z,99.90
2022-10-06T01:32:09.482Z,99.90
2022-10-06T01:34:36.385Z,99.90
2022-10-06T01:37:03.042Z,99.90
2022-10-06T01:39:29.780Z,99.90
2022-10-06T01:41:56.428Z,99.90
2022-10-06T01:44:23.094Z,99.90
2022-10-06T01:46:49.836Z,99.90
2022-10-06T01:49:16.631Z,99.90
2022-10-06T01:51:45.328Z,99.90
2022-10-06T01:54:11.978Z,99.90
2022-10-06T01:56:38.708Z,99.90
2022-10-06T01:59:05.398Z,99.90
2022-10-06T02:01:32.450Z,99.90
2022-10-06T02:03:59.249Z,99.90
2022-10-06T02:06:26.263Z,99.90
2022-10-06T02:08:52.931Z,99.90
2022-10-06T02:11:20.040Z,99.90
2022-10-06T02:13:46.704Z,99.90
2022-10-06T02:16:14.273Z,99.90
2022-10-06T02:18:41.245Z,99.90
2022-10-06T02:21:14.786Z,99.90
2022-10-06T02:23:41.517Z,99.90
2022-10-06T02:26:08.488Z,99.90
2022-10-06T02:28:35.457Z,99.90
2022-10-06T02:31:08.389Z,99.90
2022-10-06T02:33:36.297Z,99.90
2022-10-06T02:36:03.979Z,99.90
2022-10-06T02:38:32.461Z,99.90
2022-10-06T02:41:00.387Z,99.90
2022-10-06T02:43:31.831Z,99.90
2022-10-06T02:46:08.068Z,99.90
2022-10-06T02:48:35.086Z,99.90
2022-10-06T02:51:09.561Z,99.90
2022-10-06T02:53:37.005Z,99.90
2022-10-06T02:56:08.530Z,99.90
2022-10-06T02:58:35.382Z,99.90
2022-10-06T03:01:06.968Z,99.90
2022-10-06T03:03:37.868Z,99.90
2022-10-06T03:06:06.379Z,99.90
2022-10-06T03:08:33.814Z,99.90
2022-10-06T03:11:04.894Z,99.90
2022-10-06T03:13:31.734Z,99.90
2022-10-06T03:15:58.604Z,99.90
2022-10-06T03:18:25.703Z,99.90
2022-10-06T03:20:54.057Z,99.90
2022-10-06T03:23:20.868Z,99.90
2022-10-06T03:25:56.510Z,99.90
2022-10-06T03:28:23.382Z,99.90
2022-10-06T03:30:50.437Z,99.90
2022-10-06T03:33:17.116Z,99.90
2022-10-06T03:35:43.756Z,99.90
2022-10-06T03:38:11.172Z,99.90
2022-10-06T03:40:37.834Z,99.90
2022-10-06T03:43:04.657Z,99.90
2022-10-06T03:45:31.477Z,99.90
2022-10-06T03:47:59.254Z,99.90
2022-10-06T03:50:25.974Z,99.90
2022-10-06T03:52:52.690Z,99.90
2022-10-06T03:55:19.463Z,99.90
2022-10-06T03:57:46.133Z,99.90
2022-10-06T04:00:13.599Z,99.90
2022-10-06T04:02:40.388Z,99.90
2022-10-06T04:05:07.513Z,99.90
2022-10-06T04:07:34.165Z,99.90
2022-10-06T04:10:00.822Z,99.90
2022-10-06T04:12:27.474Z,99.90
2022-10-06T04:14:59.214Z,99.90
2022-10-06T04:17:26.681Z,99.90
2022-10-06T04:19:53.303Z,99.90
2022-10-06T04:22:20.038Z,99.90
2022-10-06T04:24:46.665Z,99.90
2022-10-06T04:27:28.376Z,99.90
2022-10-06T04:29:56.343Z,99.90
2022-10-06T04:32:23.230Z,99.90
2022-10-06T04:34:49.964Z,99.90
2022-10-06T04:37:16.630Z,99.90
2022-10-06T04:39:43.311Z,99.90
2022-10-06T04:42:10.030Z,99.90
2022-10-06T04:44:36.703Z,99.90
2022-10-06T04:47:04.283Z,99.90
2022-10-06T04:49:31.781Z,99.90
2022-10-06T04:51:58.454Z,99.90
2022-10-06T04:54:26.431Z,99.90
2022-10-06T04:56:54.729Z,99.90
2022-10-06T04:59:21.485Z,99.90
2022-10-06T05:01:48.270Z,99.90
2022-10-06T05:04:15.034Z,99.90
2022-10-06T05:06:42.469Z,99.90
2022-10-06T05:09:12.065Z,99.90
2022-10-06T05:11:38.932Z,99.90
2022-10-06T05:14:06.161Z,99.90
2022-10-06T05:16:33.300Z,99.90
2022-10-06T05:19:00.357Z,99.90
2022-10-06T05:21:31.162Z,99.90
2022-10-06T05:23:58.294Z,99.90
2022-10-06T05:26:31.287Z,99.90
2022-10-06T05:28:58.568Z,99.90
2022-10-06T05:31:27.883Z,99.90
2022-10-06T05:33:56.383Z,99.90
2022-10-06T05:36:29.847Z,99.90
2022-10-06T05:38:57.443Z,99.90
2022-10-06T05:41:29.792Z,99.90
2022-10-06T05:43:58.266Z,99.90
2022-10-06T05:46:28.453Z,99.90
2022-10-06T05:49:00.453Z,99.90
2022-10-06T05:51:30.882Z,99.90
2022-10-06T05:53:59.212Z,99.90
2022-10-06T05:56:28.548Z,99.90
2022-10-06T05:58:57.086Z,99.90
2022-10-06T06:01:29.505Z,99.90
2022-10-06T06:04:02.881Z,99.90
2022-10-06T06:06:33.948Z,99.90
2022-10-06T06:09:10.920Z,99.90
2022-10-06T06:11:40.369Z,99.90
2022-10-06T06:14:13.023Z,99.90
2022-10-06T06:16:41.354Z,99.90
2022-10-06T06:19:10.264Z,99.90
2022-10-06T06:21:37.552Z,99.90
2022-10-06T06:24:05.164Z,99.90
2022-10-06T06:26:34.468Z,99.90
2022-10-06T06:29:05.305Z,99.90
2022-10-06T06:31:37.500Z,99.90
2022-10-06T06:34:06.680Z,99.90
2022-10-06T06:36:36.931Z,99.90
2022-10-06T06:39:09.330Z,99.90
2022-10-06T06:41:39.420Z,99.90
2022-10-06T06:44:08.394Z,99.90
2022-10-06T06:49:22.592Z,99.90
2022-10-06T06:51:53.871Z,99.90
2022-10-06T06:54:20.726Z,99.90
2022-10-06T06:56:48.855Z,99.90
2022-10-06T06:59:16.022Z,99.90
2022-10-06T07:01:45.712Z,99.90
2022-10-06T07:04:14.672Z,99.90
2022-10-06T07:06:42.704Z,99.90
2022-10-06T07:09:10.463Z,99.90
2022-10-06T07:11:39.678Z,99.90
2022-10-06T07:14:10.199Z,99.90
2022-10-06T07:16:55.550Z,99.90
2022-10-06T07:19:40.727Z,99.90
2022-10-06T07:22:26.292Z,99.90
2022-10-06T07:25:12.940Z,99.90
2022-10-06T07:27:51.161Z,99.90
2022-10-06T07:30:19.587Z,99.90
2022-10-06T07:32:50.942Z,99.90
2022-10-06T07:35:21.286Z,99.90
2022-10-06T07:37:49.458Z,99.90
2022-10-06T07:40:17.042Z,99.90
2022-10-06T07:42:53.023Z,99.90
2022-10-06T07:45:45.150Z,99.90
2022-10-06T07:48:14.865Z,99.90
2022-10-06T07:50:42.673Z,99.90
2022-10-06T07:53:09.559Z,99.90
2022-10-06T07:55:39.939Z,99.90
2022-10-06T07:58:27.070Z,99.90
2022-10-06T08:00:53.835Z,99.90
2022-10-06T08:03:21.279Z,99.90
2022-10-06T08:05:56.505Z,99.90
2022-10-06T08:08:23.202Z,99.90
2022-10-06T08:11:01.507Z,99.90
2022-10-06T08:13:28.707Z,99.90
2022-10-06T08:15:56.487Z,99.90
2022-10-06T08:18:45.435Z,99.90
2022-10-06T08:21:21.027Z,99.90
2022-10-06T08:23:49.124Z,99.90
2022-10-06T08:26:17.401Z,99.90
2022-10-06T08:28:49.506Z,99.90
2022-10-06T08:31:18.063Z,99.90
2022-10-06T08:33:45.965Z,99.90
2022-10-06T08:36:20.704Z,99.90
2022-10-06T08:38:50.157Z,99.90
2022-10-06T08:41:27.428Z,99.90
2022-10-06T08:44:02.363Z,99.90
2022-10-06T08:46:36.516Z,99.90
2022-10-06T08:49:03.577Z,99.90
2022-10-06T08:51:49.270Z,99.90
2022-10-06T08:54:39.755Z,99.90
2022-10-06T08:57:31.482Z,99.90
2022-10-06T08:59:59.276Z,99.90
2022-10-06T09:02:39.226Z,99.90
2022-10-06T09:05:07.017Z,99.90
2022-10-06T09:07:59.409Z,99.90
2022-10-06T09:10:53.061Z,99.90
2022-10-06T09:13:28.709Z,99.90
2022-10-06T09:16:00.232Z,99.90
2022-10-06T09:19:06.786Z,99.90
2022-10-06T09:21:35.368Z,99.90
2022-10-06T09:24:12.641Z,99.90
2022-10-06T09:26:44.143Z,99.90
2022-10-06T09:29:11.266Z,99.90
2022-10-06T09:31:42.213Z,99.90
2022-10-06T09:34:08.961Z,99.90
2022-10-06T09:37:02.858Z,99.90
2022-10-06T09:39:36.978Z,98.90
2022-10-06T09:42:13.769Z,99.30
2022-10-06T09:45:04.016Z,99.70
2022-10-06T09:47:36.676Z,98.20
2022-10-06T09:50:12.222Z,99.90
2022-10-06T09:52:43.414Z,99.80
2022-10-06T09:55:18.569Z,99.90
2022-10-06T09:57:51.810Z,97.00
2022-10-06T10:00:39.030Z,97.80
2022-10-06T10:03:13.266Z,98.00
2022-10-06T10:05:47.811Z,97.60
2022-10-06T10:08:14.476Z,97.10
2022-10-06T10:10:41.536Z,97.40
2022-10-06T10:13:26.894Z,96.80
2022-10-06T10:16:02.811Z,94.80
2022-10-06T10:18:32.477Z,93.90
2022-10-06T10:21:06.245Z,96.50
2022-10-06T10:23:39.336Z,97.70
2022-10-06T10:26:08.051Z,93.80
2022-10-06T10:28:51.701Z,96.50
2022-10-06T10:31:42.519Z,97.00
2022-10-06T10:34:30.095Z,97.30
2022-10-06T10:37:12.415Z,96.90
2022-10-06T10:39:45.961Z,94.80
2022-10-06T10:42:20.948Z,93.30
2022-10-06T10:45:07.685Z,95.20
2022-10-06T10:47:36.706Z,94.50
2022-10-06T10:50:32.013Z,94.50
2022-10-06T10:53:09.531Z,91.40
